createdAt,value
2019-04-26T00:01:36.582Z,14.87
2019-04-26T00:06:40.248Z,14.83
2019-04-26T00:11:51.096Z,14.85
2019-04-26T00:16:58.819Z,14.81
2019-04-26T00:22:02.653Z,14.73
2019-04-26T00:27:06.402Z,14.74
2019-04-26T00:32:10.683Z,14.65
2019-04-26T00:37:15.903Z,14.61
2019-04-26T00:42:20.634Z,14.50
2019-04-26T00:47:26.029Z,14.52
2019-04-26T00:52:29.905Z,14.19
2019-04-26T00:57:33.630Z,14.08
2019-04-26T01:02:38.749Z,13.92
2019-04-26T01:07:43.877Z,14.01
2019-04-26T01:12:47.376Z,13.98
2019-04-26T01:17:50.797Z,13.97
2019-04-26T01:22:57.266Z,13.74
2019-04-26T01:28:01.715Z,13.73
2019-04-26T01:33:05.542Z,13.28
2019-04-26T01:38:11.996Z,13.32
2019-04-26T01:43:26.441Z,13.21
2019-04-26T01:48:46.030Z,13.13
2019-04-26T01:53:52.151Z,13.16
2019-04-26T01:58:55.729Z,13.23
2019-04-26T02:03:59.854Z,13.18
2019-04-26T02:09:05.431Z,13.16
2019-04-26T02:14:09.262Z,13.14
2019-04-26T02:19:12.816Z,13.13
2019-04-26T02:24:20.837Z,13.02
2019-04-26T02:29:27.019Z,12.99
2019-04-26T02:34:36.013Z,12.97
2019-04-26T02:39:41.446Z,12.89
2019-04-26T02:44:49.603Z,12.81
2019-04-26T02:49:56.838Z,12.83
2019-04-26T02:55:03.316Z,12.69
2019-04-26T03:00:41.455Z,12.62
2019-04-26T03:05:46.023Z,12.58
2019-04-26T03:10:52.477Z,12.57
2019-04-26T03:16:16.348Z,12.68
2019-04-26T03:21:51.086Z,12.70
2019-04-26T03:27:12.582Z,12.63
2019-04-26T03:32:33.819Z,12.66
2019-04-26T03:37:50.098Z,12.71
2019-04-26T03:43:13.082Z,12.75
2019-04-26T03:48:31.339Z,12.74
2019-04-26T03:53:39.740Z,12.84
2019-04-26T03:58:47.625Z,12.86
2019-04-26T04:03:53.207Z,12.86
2019-04-26T04:09:08.888Z,12.94
2019-04-26T04:14:33.620Z,12.96
2019-04-26T04:20:07.453Z,12.98
2019-04-26T04:25:19.602Z,13.00
2019-04-26T04:30:32.079Z,12.94
2019-04-26T04:35:41.733Z,12.94
2019-04-26T04:41:15.646Z,12.91
2019-04-26T04:46:49.904Z,13.01
2019-04-26T04:52:19.798Z,13.06
2019-04-26T04:57:32.459Z,13.05
2019-04-26T05:03:04.575Z,13.10
2019-04-26T05:08:27.878Z,13.18
2019-04-26T05:13:37.245Z,13.27
2019-04-26T05:19:03.453Z,13.19
2019-04-26T05:24:10.217Z,13.19
2019-04-26T05:29:52.090Z,13.25
2019-04-26T05:35:15.431Z,13.34
2019-04-26T05:40:51.530Z,13.31
2019-04-26T05:46:16.232Z,13.34
2019-04-26T05:51:43.215Z,13.41
2019-04-26T05:57:09.395Z,13.44
2019-04-26T06:02:46.899Z,13.54
2019-04-26T06:14:08.870Z,13.60
2019-04-26T06:19:22.575Z,13.52
2019-04-26T06:24:49.772Z,13.60
2019-04-26T06:30:15.816Z,13.65
2019-04-26T06:35:22.983Z,13.67
2019-04-26T06:40:53.461Z,13.73
2019-04-26T06:46:23.288Z,13.84
2019-04-26T06:51:39.462Z,13.89
2019-04-26T06:57:23.822Z,13.81
2019-04-26T07:02:57.519Z,13.90
2019-04-26T07:08:36.886Z,13.93
2019-04-26T07:14:15.712Z,13.92
2019-04-26T07:20:04.208Z,14.01
2019-04-26T07:25:27.112Z,14.04
2019-04-26T07:30:42.580Z,14.15
2019-04-26T07:36:13.809Z,14.20
2019-04-26T07:41:30.432Z,14.12
2019-04-26T07:46:42.679Z,14.09
2019-04-26T07:51:55.175Z,14.10
2019-04-26T07:57:10.785Z,13.98
2019-04-26T08:02:21.932Z,14.09
2019-04-26T08:07:31.109Z,14.05
2019-04-26T08:12:37.280Z,14.03
2019-04-26T08:17:48.203Z,13.97
2019-04-26T08:23:37.204Z,13.92
2019-04-26T08:28:24.828Z,13.83
2019-04-26T08:38:48.831Z,13.74
2019-04-26T08:44:08.613Z,13.74
2019-04-26T08:49:31.352Z,13.77
2019-04-26T08:54:39.743Z,13.86
2019-04-26T08:59:49.020Z,13.90
2019-04-26T09:04:57.155Z,13.73
2019-04-26T09:10:10.716Z,13.84
2019-04-26T09:15:17.240Z,13.86
2019-04-26T09:20:28.638Z,13.83
2019-04-26T09:25:40.901Z,13.66
2019-04-26T09:36:12.244Z,13.91
2019-04-26T09:41:15.740Z,14.11
2019-04-26T09:46:23.622Z,14.13
2019-04-26T09:51:27.437Z,14.30
2019-04-26T09:56:30.947Z,14.30
2019-04-26T10:01:34.382Z,14.42
2019-04-26T10:06:37.862Z,14.78
2019-04-26T10:11:43.596Z,14.85
2019-04-26T10:16:52.316Z,15.00
2019-04-26T10:21:56.038Z,14.91
2019-04-26T10:27:03.439Z,14.96
2019-04-26T10:32:06.370Z,14.87
2019-04-26T10:37:09.812Z,15.03
2019-04-26T10:42:13.527Z,15.19
2019-04-26T10:47:17.058Z,15.35
2019-04-26T10:52:34.259Z,15.43
2019-04-26T10:57:41.910Z,15.29
2019-04-26T11:02:46.035Z,15.32
2019-04-26T11:07:49.557Z,15.23
2019-04-26T11:12:53.064Z,15.13
2019-04-26T11:17:56.731Z,15.23
2019-04-26T11:23:00.172Z,15.29
2019-04-26T11:28:05.921Z,15.19
2019-04-26T11:33:11.148Z,15.18
2019-04-26T11:38:14.326Z,14.97
2019-04-26T11:43:21.004Z,15.07
2019-04-26T11:48:25.405Z,15.28
2019-04-26T11:53:33.394Z,15.32
2019-04-26T11:58:36.662Z,15.25
2019-04-26T12:03:41.893Z,15.19
2019-04-26T12:08:49.857Z,15.57
2019-04-26T12:13:55.308Z,15.64
2019-04-26T12:18:58.800Z,15.65
2019-04-26T12:24:02.242Z,15.65
2019-04-26T12:29:06.569Z,15.69
2019-04-26T12:34:09.952Z,15.70
2019-04-26T12:39:15.039Z,15.54
2019-04-26T12:44:18.555Z,15.30
2019-04-26T12:49:24.357Z,15.51
2019-04-26T12:54:27.211Z,15.51
2019-04-26T12:59:43.342Z,15.45
2019-04-26T13:04:36.648Z,15.36
2019-04-26T13:09:42.866Z,15.50
2019-04-26T13:14:54.208Z,15.56
2019-04-26T13:19:57.588Z,15.51
2019-04-26T13:25:02.173Z,15.32
2019-04-26T13:30:10.642Z,15.52
2019-04-26T13:35:13.036Z,15.62
2019-04-26T13:40:16.571Z,15.60
2019-04-26T13:45:37.990Z,15.56
2019-04-26T13:50:43.049Z,15.33
2019-04-26T13:55:46.617Z,15.58
2019-04-26T14:00:50.359Z,15.54
2019-04-26T14:05:53.789Z,15.56
2019-04-26T14:10:57.366Z,15.56
2019-04-26T14:16:00.882Z,15.57
2019-04-26T14:21:06.937Z,15.61
2019-04-26T14:26:14.737Z,15.60
2019-04-26T14:31:18.514Z,15.69
2019-04-26T14:36:26.826Z,15.62
2019-04-26T14:41:28.854Z,15.63
2019-04-26T14:46:32.436Z,15.52
2019-04-26T14:51:35.844Z,15.49
2019-04-26T14:56:51.704Z,15.48
2019-04-26T15:01:48.833Z,15.47
2019-04-26T15:06:58.214Z,15.58
2019-04-26T15:12:01.386Z,15.56
2019-04-26T15:17:04.325Z,15.66
2019-04-26T15:22:10.385Z,15.68
2019-04-26T15:27:13.058Z,15.66
2019-04-26T15:32:16.533Z,15.67
2019-04-26T15:37:24.007Z,15.85
2019-04-26T15:42:29.319Z,15.83
2019-04-26T15:47:52.446Z,15.76
2019-04-26T15:52:56.098Z,15.79
2019-04-26T15:58:02.703Z,15.87
2019-04-26T16:03:07.451Z,15.90
2019-04-26T16:08:09.984Z,16.01
2019-04-26T16:13:21.068Z,16.15
2019-04-26T16:18:19.207Z,16.34
2019-04-26T16:23:24.168Z,16.43
2019-04-26T16:28:31.023Z,16.47
2019-04-26T16:33:36.315Z,16.52
2019-04-26T16:38:40.630Z,16.83
2019-04-26T16:43:52.206Z,17.03
2019-04-26T16:48:49.744Z,17.44
2019-04-26T16:54:06.550Z,17.47
2019-04-26T16:59:02.839Z,17.45
2019-04-26T17:04:11.232Z,17.36
2019-04-26T17:09:14.754Z,16.85
2019-04-26T17:14:18.529Z,16.37
2019-04-26T17:19:22.915Z,16.47
2019-04-26T17:24:33.965Z,16.37
2019-04-26T17:29:37.611Z,16.23
2019-04-26T17:34:41.102Z,16.06
2019-04-26T17:39:47.580Z,15.82
2019-04-26T17:44:49.689Z,15.69
2019-04-26T17:49:53.176Z,15.52
2019-04-26T17:54:56.639Z,15.37
2019-04-26T18:00:07.147Z,15.33
2019-04-26T18:05:07.247Z,15.08
2019-04-26T18:10:10.916Z,14.91
2019-04-26T18:15:19.163Z,14.79
2019-04-26T18:20:25.225Z,14.65
2019-04-26T18:25:28.750Z,14.50
2019-04-26T18:30:32.959Z,14.38
2019-04-26T18:35:36.436Z,14.26
2019-04-26T18:40:57.121Z,14.14
2019-04-26T18:45:46.731Z,14.20
2019-04-26T18:50:50.164Z,14.17
2019-04-26T18:55:54.477Z,14.03
2019-04-26T19:01:01.712Z,13.93
2019-04-26T19:06:05.552Z,13.74
2019-04-26T19:11:11.880Z,13.65
2019-04-26T19:16:33.269Z,13.52
2019-04-26T19:21:40.954Z,13.51
2019-04-26T19:26:50.005Z,13.32
2019-04-26T19:31:52.207Z,13.30
2019-04-26T19:36:56.404Z,13.23
2019-04-26T19:42:02.490Z,13.23
2019-04-26T19:47:13.642Z,13.11
2019-04-26T19:52:26.864Z,13.08
2019-04-26T19:57:33.366Z,13.00
2019-04-26T20:02:39.268Z,12.99
2019-04-26T20:07:42.321Z,12.86
2019-04-26T20:12:45.766Z,12.77
2019-04-26T20:17:52.873Z,12.73
2019-04-26T20:22:59.357Z,12.71
2019-04-26T20:28:03.093Z,12.71
2019-04-26T20:33:06.623Z,12.65
2019-04-26T20:38:11.883Z,12.56
2019-04-26T20:43:25.819Z,12.46
2019-04-26T20:48:21.611Z,12.46
2019-04-26T20:53:25.171Z,12.38
2019-04-26T20:58:30.368Z,12.29
2019-04-26T21:03:41.891Z,12.18
2019-04-26T21:08:39.622Z,12.11
2019-04-26T21:13:43.120Z,12.11
2019-04-26T21:18:46.618Z,12.08
2019-04-26T21:23:51.719Z,11.93
2019-04-26T21:28:56.991Z,11.88
2019-04-26T21:34:07.859Z,11.67
2019-04-26T21:39:26.742Z,11.70
2019-04-26T21:44:30.186Z,11.58
2019-04-26T21:49:35.756Z,11.62
2019-04-26T21:54:38.765Z,11.53
2019-04-26T21:59:44.089Z,11.57
2019-04-26T22:04:47.423Z,11.56
2019-04-26T22:09:52.952Z,11.54
2019-04-26T22:20:28.848Z,11.47
2019-04-26T22:25:36.572Z,11.41
2019-04-26T22:30:39.976Z,11.40
2019-04-26T22:35:43.402Z,11.16
2019-04-26T22:40:48.576Z,11.16
2019-04-26T22:45:53.950Z,11.19
2019-04-26T22:50:58.822Z,11.25
2019-04-26T22:56:04.597Z,11.24
2019-04-26T23:01:07.852Z,11.04
2019-04-26T23:06:12.743Z,11.00
2019-04-26T23:11:16.563Z,11.03
2019-04-26T23:16:33.703Z,10.90
2019-04-26T23:21:44.280Z,10.88
2019-04-26T23:26:46.405Z,10.85
2019-04-26T23:31:49.822Z,10.83
2019-04-26T23:36:54.051Z,10.86
2019-04-26T23:41:57.554Z,10.91
2019-04-26T23:47:02.324Z,10.75
2019-04-26T23:52:06.428Z,10.72
2019-04-26T23:57:09.834Z,10.68
